createdAt,value
2023-05-06T00:04:33.745Z,10.48
2023-05-06T00:09:36.102Z,9.27
2023-05-06T00:14:38.465Z,12.77
2023-05-06T00:19:40.878Z,14.88
2023-05-06T00:24:43.169Z,16.63
2023-05-06T00:29:45.405Z,11.93
2023-05-06T00:34:48.169Z,13.00
2023-05-06T00:39:50.369Z,13.00
2023-05-06T00:44:53.068Z,13.35
2023-05-06T00:49:55.400Z,10.70
2023-05-06T00:54:57.947Z,11.77
2023-05-06T01:00:00.252Z,14.93
2023-05-06T01:05:03.785Z,11.05
2023-05-06T01:10:14.175Z,12.20
2023-05-06T01:15:22.559Z,16.75
2023-05-06T01:20:27.312Z,12.20
2023-05-06T01:25:30.691Z,11.13
2023-05-06T01:30:39.408Z,11.90
2023-05-06T01:35:55.302Z,13.77
2023-05-06T01:40:58.980Z,12.43
2023-05-06T01:46:02.002Z,14.20
2023-05-06T01:51:04.765Z,16.23
2023-05-06T01:56:07.721Z,13.52
2023-05-06T02:01:10.224Z,14.63
2023-05-06T02:06:12.701Z,16.90
2023-05-06T02:11:15.121Z,16.10
2023-05-06T02:16:17.396Z,14.02
2023-05-06T02:21:19.688Z,19.85
2023-05-06T02:26:21.914Z,12.30
2023-05-06T02:31:24.319Z,14.73
2023-05-06T02:36:27.005Z,14.52
2023-05-06T02:41:29.352Z,13.57
2023-05-06T02:46:31.639Z,12.45
2023-05-06T02:51:33.970Z,14.63
2023-05-06T02:56:36.354Z,12.80
2023-05-06T03:01:38.807Z,15.35
2023-05-06T03:06:41.033Z,17.67
2023-05-06T03:11:43.487Z,16.77
2023-05-06T03:16:45.764Z,15.55
2023-05-06T03:21:48.652Z,14.40
2023-05-06T03:26:51.209Z,17.23
2023-05-06T03:31:56.928Z,19.70
2023-05-06T03:36:59.282Z,17.23
2023-05-06T03:42:01.507Z,15.88
2023-05-06T03:47:03.719Z,14.13
2023-05-06T03:52:06.303Z,15.40
2023-05-06T03:57:08.514Z,16.50
2023-05-06T04:02:10.794Z,15.63
2023-05-06T04:07:13.105Z,22.80
2023-05-06T04:12:15.455Z,14.75
2023-05-06T04:17:17.783Z,15.45
2023-05-06T04:22:20.527Z,16.98
2023-05-06T04:27:22.939Z,15.02
2023-05-06T04:32:28.011Z,15.05
2023-05-06T04:37:31.221Z,12.43
2023-05-06T04:42:33.922Z,14.70
2023-05-06T04:47:36.345Z,14.75
2023-05-06T04:52:38.907Z,15.95
2023-05-06T04:57:41.166Z,16.95
2023-05-06T05:02:43.325Z,19.38
2023-05-06T05:07:45.864Z,16.00
2023-05-06T05:12:48.053Z,14.63
2023-05-06T05:17:51.502Z,14.93
2023-05-06T05:22:53.600Z,10.35
2023-05-06T05:27:55.733Z,13.18
2023-05-06T05:32:58.205Z,18.08
2023-05-06T05:38:00.503Z,16.38
2023-05-06T05:43:02.684Z,14.98
2023-05-06T05:48:05.299Z,18.95
2023-05-06T05:53:07.483Z,14.45
2023-05-06T05:58:11.967Z,13.30
2023-05-06T06:03:14.241Z,15.82
2023-05-06T06:08:19.178Z,16.05
2023-05-06T06:13:22.228Z,17.60
2023-05-06T06:18:24.780Z,10.20
2023-05-06T06:23:27.224Z,18.13
2023-05-06T06:28:29.438Z,11.13
2023-05-06T06:33:31.897Z,8.23
2023-05-06T06:38:34.665Z,6.90
2023-05-06T06:43:38.864Z,8.13
2023-05-06T06:48:40.995Z,9.45
2023-05-06T06:53:43.528Z,7.28
2023-05-06T06:58:45.820Z,11.05
2023-05-06T07:03:48.057Z,6.47
2023-05-06T07:08:50.568Z,8.77
2023-05-06T07:13:52.763Z,7.40
2023-05-06T07:18:55.026Z,7.90
2023-05-06T07:23:57.372Z,8.82
2023-05-06T07:28:59.530Z,4.95
2023-05-06T07:34:01.963Z,5.90
2023-05-06T07:39:04.464Z,7.43
2023-05-06T07:44:07.215Z,9.43
2023-05-06T07:49:09.450Z,9.75
2023-05-06T07:54:11.866Z,8.65
2023-05-06T07:59:15.280Z,6.15
2023-05-06T08:04:17.681Z,5.22
2023-05-06T08:09:22.957Z,3.83
2023-05-06T08:14:29.700Z,5.78
2023-05-06T08:19:32.025Z,4.95
2023-05-06T08:24:34.273Z,4.05
2023-05-06T08:29:36.827Z,3.83
2023-05-06T08:34:38.929Z,4.53
2023-05-06T08:39:42.005Z,5.60
2023-05-06T08:44:45.052Z,4.50
2023-05-06T08:49:47.920Z,4.32
2023-05-06T08:54:54.965Z,5.22
2023-05-06T08:59:57.340Z,3.65
2023-05-06T09:05:00.719Z,4.45
2023-05-06T09:10:15.599Z,3.65
2023-05-06T09:15:17.997Z,5.15
2023-05-06T09:20:20.526Z,5.78
2023-05-06T09:25:22.909Z,3.92
2023-05-06T09:30:25.086Z,4.90
2023-05-06T09:35:36.935Z,3.80
2023-05-06T09:40:39.741Z,4.72
2023-05-06T09:45:42.440Z,5.30
2023-05-06T09:50:44.888Z,8.02
2023-05-06T09:55:47.738Z,52.15
2023-05-06T10:00:52.623Z,13.90
2023-05-06T10:05:57.832Z,7.25
2023-05-06T10:11:02.090Z,4.53
2023-05-06T10:16:07.189Z,8.55
2023-05-06T10:21:17.790Z,7.40
2023-05-06T10:26:22.410Z,5.70
2023-05-06T10:31:53.439Z,3.22
2023-05-06T10:36:58.289Z,6.35
2023-05-06T10:42:00.668Z,7.38
2023-05-06T10:47:02.948Z,4.15
2023-05-06T10:52:14.253Z,5.03
2023-05-06T10:57:16.733Z,2.00
2023-05-06T11:02:20.945Z,3.40
2023-05-06T11:07:24.811Z,2.38
2023-05-06T11:12:47.041Z,2.13
2023-05-06T11:17:49.486Z,4.05
2023-05-06T11:22:52.864Z,5.30
2023-05-06T11:27:56.697Z,1.80
2023-05-06T11:33:05.559Z,1.77
2023-05-06T11:38:08.118Z,4.18
2023-05-06T11:43:14.587Z,3.78
2023-05-06T11:48:18.681Z,5.40
2023-05-06T11:53:23.594Z,4.43
2023-05-06T11:58:28.098Z,3.35
2023-05-06T12:03:32.794Z,1.77
2023-05-06T12:08:37.455Z,2.63
2023-05-06T12:13:41.081Z,2.25
2023-05-06T12:18:45.211Z,2.33
2023-05-06T12:23:52.800Z,4.82
2023-05-06T12:29:12.345Z,3.22
2023-05-06T12:34:16.680Z,4.68
2023-05-06T12:39:18.903Z,3.03
2023-05-06T12:44:35.296Z,3.22
2023-05-06T12:49:51.380Z,4.65
2023-05-06T12:54:53.821Z,4.20
2023-05-06T12:59:56.710Z,3.70
2023-05-06T13:04:58.947Z,2.70
2023-05-06T13:10:01.448Z,3.83
2023-05-06T13:15:05.606Z,2.08
2023-05-06T13:20:08.587Z,1.58
2023-05-06T13:25:11.891Z,1.83
2023-05-06T13:30:14.339Z,2.60
2023-05-06T13:35:16.744Z,4.63
2023-05-06T13:40:19.026Z,3.45
2023-05-06T13:45:21.293Z,3.95
2023-05-06T13:50:23.556Z,8.13
2023-05-06T13:55:25.890Z,3.42
2023-05-06T14:00:28.274Z,4.25
2023-05-06T14:05:30.902Z,2.70
2023-05-06T14:10:33.142Z,3.03
2023-05-06T14:15:35.555Z,4.47
2023-05-06T14:20:37.773Z,2.53
2023-05-06T14:25:40.602Z,3.10
2023-05-06T14:30:43.060Z,2.15
2023-05-06T14:35:46.568Z,4.50
2023-05-06T14:40:48.807Z,2.83
2023-05-06T14:45:51.160Z,2.97
2023-05-06T14:50:53.580Z,2.67
2023-05-06T14:55:56.840Z,2.08
2023-05-06T15:00:59.104Z,4.97
2023-05-06T15:06:01.433Z,2.25
2023-05-06T15:11:04.462Z,4.38
2023-05-06T15:16:10.519Z,3.55
2023-05-06T15:21:13.893Z,3.08
2023-05-06T15:26:16.559Z,5.68
2023-05-06T15:31:19.136Z,2.78
2023-05-06T15:36:21.402Z,3.58
2023-05-06T15:41:27.176Z,4.63
2023-05-06T15:57:23.019Z,3.67
2023-05-06T16:08:43.639Z,4.05
2023-05-06T16:13:46.793Z,4.05
2023-05-06T16:18:49.830Z,2.38
2023-05-06T16:23:52.132Z,3.00
2023-05-06T16:28:54.575Z,3.58
2023-05-06T16:33:56.957Z,2.55
2023-05-06T16:38:59.176Z,4.75
2023-05-06T16:44:02.510Z,7.40
2023-05-06T16:49:05.179Z,4.32
2023-05-06T16:54:07.523Z,4.28
2023-05-06T16:59:09.710Z,3.78
2023-05-06T17:04:12.009Z,3.60
2023-05-06T17:09:14.586Z,5.90
2023-05-06T17:14:17.156Z,6.32
2023-05-06T17:19:19.475Z,5.50
2023-05-06T17:24:22.135Z,6.20
2023-05-06T17:29:24.560Z,5.97
2023-05-06T17:34:27.147Z,6.40
2023-05-06T17:39:29.422Z,4.45
2023-05-06T17:44:32.105Z,4.30
2023-05-06T17:49:34.907Z,6.85
2023-05-06T17:54:38.617Z,3.92
2023-05-06T17:59:40.847Z,3.67
2023-05-06T18:04:44.996Z,3.10
2023-05-06T18:09:52.260Z,4.53
2023-05-06T18:14:55.757Z,5.88
2023-05-06T18:19:58.087Z,5.25
2023-05-06T18:25:00.364Z,6.43
2023-05-06T18:30:03.339Z,4.88
2023-05-06T18:35:05.904Z,5.60
2023-05-06T18:40:11.728Z,6.95
2023-05-06T18:45:13.988Z,6.93
2023-05-06T18:50:16.612Z,7.22
2023-05-06T18:55:18.898Z,4.53
2023-05-06T19:00:24.673Z,3.05
2023-05-06T19:05:27.004Z,6.43
2023-05-06T19:10:29.340Z,4.95
2023-05-06T19:15:32.203Z,12.30
2023-05-06T19:20:34.902Z,7.80
2023-05-06T19:25:39.156Z,5.93
2023-05-06T19:30:41.563Z,4.55
2023-05-06T19:35:43.937Z,11.07
2023-05-06T19:40:46.196Z,8.13
2023-05-06T19:45:48.488Z,6.22
2023-05-06T19:50:52.004Z,13.75
2023-05-06T19:55:56.505Z,14.20
2023-05-06T20:00:58.978Z,10.27
2023-05-06T20:06:01.832Z,9.18
2023-05-06T20:11:04.098Z,8.27
2023-05-06T20:16:07.174Z,14.52
2023-05-06T20:21:09.551Z,12.02
2023-05-06T20:26:11.931Z,12.68
2023-05-06T20:31:14.162Z,9.77
2023-05-06T20:36:17.231Z,14.98
2023-05-06T20:41:19.499Z,10.73
2023-05-06T20:46:22.001Z,15.93
2023-05-06T20:51:24.376Z,14.00
2023-05-06T20:56:27.247Z,10.52
2023-05-06T21:01:29.871Z,11.23
2023-05-06T21:06:33.216Z,22.90
2023-05-06T21:11:35.658Z,13.82
2023-05-06T21:16:40.105Z,10.65
2023-05-06T21:21:42.432Z,12.50
2023-05-06T21:26:44.711Z,14.98
2023-05-06T21:31:46.929Z,11.95
2023-05-06T21:36:49.187Z,11.15
2023-05-06T21:41:51.461Z,9.82
2023-05-06T21:46:53.823Z,10.60
2023-05-06T21:51:56.672Z,10.68
2023-05-06T21:56:58.869Z,13.40
2023-05-06T22:02:01.495Z,9.15
2023-05-06T22:07:04.170Z,8.13
2023-05-06T22:12:09.306Z,13.65
2023-05-06T22:17:12.793Z,5.18
2023-05-06T22:22:15.040Z,4.80
2023-05-06T22:27:17.260Z,7.10
2023-05-06T22:32:21.914Z,10.27
2023-05-06T22:37:30.027Z,7.38
2023-05-06T22:42:32.301Z,8.38
2023-05-06T22:47:34.612Z,8.70
2023-05-06T22:52:37.185Z,8.95
2023-05-06T22:57:39.496Z,11.60
2023-05-06T23:02:41.814Z,13.45
2023-05-06T23:07:44.074Z,10.15
2023-05-06T23:12:47.928Z,6.25
2023-05-06T23:17:50.255Z,12.93
2023-05-06T23:22:55.917Z,7.80
2023-05-06T23:27:58.156Z,9.32
2023-05-06T23:33:00.467Z,7.93
2023-05-06T23:38:02.870Z,7.47
2023-05-06T23:43:07.549Z,11.45
2023-05-06T23:48:09.860Z,7.05
2023-05-06T23:53:12.330Z,10.35
2023-05-06T23:58:14.854Z,5.65
